»·PEaware :: AAL6794 KPHX-KSNA

AAL6794 :: KPHX-KSNA

FLIGHT INFORMATION

Flight Status: Arrived
Operator:
American Airlines
More flights by this operator :: More flights under this callsign
Pilot: Anonymous 10623 (10623)
Aircraft: MCDONNELL-DOUGLAS MD-88
(MD88)
More flights by this aircraft type
Origin: KPHX Phoenix Sky Harbor Intl
United States
Destination: KSNA John Wayne-Orange Co
United States
More flights between these airports :: More routes between these airports
Route: +KEENS2 HRRBR EMLLD DSNEE4
File this flight plan on PilotEdge
Remarks: RMK / SIMBRIEF
Altitude:
(Current/Filed)
34,000ft
Speed:
(Current/Filed)
448kts
Departed: 15-Oct-20 09:59 AM
Arrived: 15-Oct-20 10:58 AM
Distance/Time
Traveled:
293nm/0:58
Distance/Time
To Go:
Arrived

Flight Plot

Page will automatically refresh every two minutes.

Flight plan parsing failed; only flown route is shown


Map Options




Map Legend


Flown Route
Filed Route
Departure Airport
Arrival Airport
Navaid (VOR, NDB)
Fix

Horizontal Profiles

Position Reports

Time Latitude Longitude Heading Altitude Ground
Speed
15-Oct-20 09:21 33.436477 -112.001168 270 1128ft 0kts
15-Oct-20 09:22 33.436477 -112.001168 270 1128ft 0kts
15-Oct-20 09:23 33.436477 -112.001168 270 1128ft 0kts
15-Oct-20 09:24 33.436477 -112.001168 269 1128ft 0kts
15-Oct-20 09:25 33.436477 -112.001168 269 1128ft 0kts
15-Oct-20 09:26 33.436477 -112.001168 269 1128ft 0kts
15-Oct-20 09:27 33.436477 -112.001168 269 1128ft 0kts
15-Oct-20 09:28 33.436477 -112.001168 269 1128ft 0kts
15-Oct-20 09:29 33.436477 -112.001168 269 1128ft 0kts
15-Oct-20 09:30 33.436477 -112.001168 269 1128ft 0kts
15-Oct-20 09:31 33.436477 -112.001168 269 1128ft 0kts
15-Oct-20 09:32 33.436477 -112.001168 269 1128ft 0kts
15-Oct-20 09:33 33.436477 -112.001168 269 1128ft 0kts
15-Oct-20 09:34 33.436477 -112.001168 269 1128ft 0kts
15-Oct-20 09:35 33.436477 -112.001168 269 1128ft 0kts
15-Oct-20 09:36 33.436477 -112.001168 269 1128ft 0kts
15-Oct-20 09:37 33.436477 -112.001168 269 1128ft 0kts
15-Oct-20 09:38 33.436477 -112.001168 269 1128ft 0kts
15-Oct-20 09:39 33.436477 -112.001168 269 1128ft 0kts
15-Oct-20 09:40 33.436477 -112.001168 269 1128ft 0kts
15-Oct-20 09:41 33.436477 -112.001168 269 1128ft 0kts
15-Oct-20 09:42 33.436477 -112.001168 269 1128ft 0kts
15-Oct-20 09:43 33.436478 -112.000642 270 1128ft 2kts
15-Oct-20 09:44 33.436491 -112.000338 283 1128ft 4kts
15-Oct-20 09:45 33.437013 -112.000764 0 1128ft 0kts
15-Oct-20 09:46 33.437013 -112.000764 0 1128ft 0kts
15-Oct-20 09:47 33.437013 -112.000764 0 1128ft 0kts
15-Oct-20 09:48 33.437045 -112.000764 0 1128ft 1kts
15-Oct-20 09:49 33.438074 -112.000756 0 1128ft 0kts
15-Oct-20 09:50 33.438074 -112.000756 0 1128ft 0kts
15-Oct-20 09:51 33.438631 -112.000761 355 1129ft 6kts
15-Oct-20 09:52 33.439011 -112.005686 269 1128ft 20kts
15-Oct-20 09:53 33.439010 -112.013643 270 1124ft 26kts
15-Oct-20 09:54 33.439014 -112.023614 269 1115ft 30kts
15-Oct-20 09:55 33.439270 -112.029568 334 1112ft 8kts
15-Oct-20 09:56 33.439542 -112.029637 355 1112ft 0kts
15-Oct-20 09:57 33.440630 -112.029609 19 1112ft 3kts
15-Oct-20 09:58 33.440865 -112.025831 89 1115ft 64kts
15-Oct-20 09:59 33.440204 -111.979929 91 2347ft 178kts
15-Oct-20 10:00 33.437029 -111.921392 90 4830ft 179kts
15-Oct-20 10:01 33.431127 -111.860144 111 6493ft 193kts
15-Oct-20 10:02 33.388548 -111.819423 167 7693ft 229kts
15-Oct-20 10:03 33.321561 -111.833944 214 8964ft 262kts
15-Oct-20 10:04 33.283207 -111.903226 277 10638ft 259kts
15-Oct-20 10:05 33.303486 -111.990126 288 11383ft 299kts
15-Oct-20 10:06 33.328305 -112.094335 288 12834ft 342kts
15-Oct-20 10:07 33.354941 -112.205833 288 15028ft 355kts
15-Oct-20 10:08 33.382511 -112.320781 288 17086ft 365kts
15-Oct-20 10:09 33.411024 -112.439190 288 18899ft 375kts
15-Oct-20 10:10 33.440305 -112.560312 288 20502ft 384kts
15-Oct-20 10:11 33.451695 -112.689223 271 21946ft 396kts
15-Oct-20 10:12 33.456224 -112.821975 282 23249ft 402kts
15-Oct-20 10:13 33.481205 -112.954028 283 24333ft 411kts
15-Oct-20 10:14 33.505975 -113.088894 283 25362ft 420kts
15-Oct-20 10:15 33.531152 -113.225568 282 26440ft 422kts
15-Oct-20 10:16 33.556778 -113.363908 282 27284ft 427kts
15-Oct-20 10:17 33.582832 -113.503696 282 28044ft 432kts
15-Oct-20 10:18 33.608989 -113.644818 282 28731ft 436kts
15-Oct-20 10:19 33.635531 -113.787975 282 29355ft 440kts
15-Oct-20 10:20 33.673513 -113.927783 294 29887ft 444kts
15-Oct-20 10:22 33.725637 -114.062292 294 30206ft 451kts
15-Oct-20 10:23 33.765432 -114.201619 277 30031ft 437kts
15-Oct-20 10:24 33.781088 -114.346572 277 30037ft 439kts
15-Oct-20 10:25 33.797395 -114.491114 277 30033ft 434kts
15-Oct-20 10:26 33.813763 -114.634493 278 30034ft 433kts
15-Oct-20 10:27 33.830299 -114.777867 277 30037ft 433kts
15-Oct-20 10:28 33.846993 -114.921332 277 30036ft 433kts
15-Oct-20 10:29 33.862485 -115.065113 277 30036ft 434kts
15-Oct-20 10:30 33.877990 -115.209467 277 30035ft 435kts
15-Oct-20 10:31 33.893640 -115.353741 277 30015ft 435kts
15-Oct-20 10:32 33.909454 -115.497910 277 29999ft 435kts
15-Oct-20 10:33 33.925456 -115.642292 277 30003ft 435kts
15-Oct-20 10:34 33.935748 -115.787479 274 30019ft 435kts
15-Oct-20 10:35 33.945723 -115.932651 274 30030ft 435kts
15-Oct-20 10:36 33.955741 -116.075899 274 28204ft 421kts
15-Oct-20 10:37 33.963229 -116.213531 267 26443ft 398kts
15-Oct-20 10:37 33.950161 -116.322373 261 24686ft 391kts
15-Oct-20 10:39 33.931711 -116.470347 262 22404ft 378kts
15-Oct-20 10:39 33.918807 -116.573306 262 20880ft 368kts
15-Oct-20 10:41 33.900644 -116.713609 262 18677ft 360kts
15-Oct-20 10:41 33.889007 -116.811985 264 16903ft 361kts
15-Oct-20 10:43 33.873457 -116.954368 264 13660ft 374kts
15-Oct-20 10:43 33.862258 -117.055461 263 12297ft 350kts
15-Oct-20 10:44 33.850500 -117.159167 262 10992ft 280kts
15-Oct-20 10:45 33.840805 -117.244995 263 10029ft 246kts
15-Oct-20 10:46 33.831780 -117.325398 263 9230ft 240kts
15-Oct-20 10:47 33.822934 -117.404611 263 8459ft 237kts
15-Oct-20 10:49 33.805267 -117.493454 273 7698ft 232kts
15-Oct-20 10:49 33.821219 -117.553017 291 7250ft 224kts
15-Oct-20 10:50 33.842554 -117.623140 291 6331ft 220kts
15-Oct-20 10:51 33.863490 -117.691286 291 4937ft 215kts
15-Oct-20 10:52 33.858732 -117.752874 206 3254ft 215kts
15-Oct-20 10:53 33.811360 -117.782655 208 3038ft 182kts
15-Oct-20 10:54 33.766775 -117.811006 207 2035ft 162kts
15-Oct-20 10:55 33.730677 -117.833955 209 1148ft 139kts
15-Oct-20 10:56 33.695134 -117.856493 206 413ft 143kts
15-Oct-20 10:57 33.670315 -117.872163 189 62ft 14kts
15-Oct-20 10:58 33.669754 -117.870237 39 62ft 13kts
15-Oct-20 10:59 33.673149 -117.867160 41 62ft 11kts
15-Oct-20 11:00 33.677348 -117.864406 27 62ft 16kts
15-Oct-20 11:01 33.678734 -117.863066 94 62ft 4kts
15-Oct-20 11:02 33.678706 -117.862818 99 62ft 0kts
15-Oct-20 11:03 33.678706 -117.862818 99 62ft 0kts
15-Oct-20 11:04 33.678706 -117.862818 99 62ft 0kts

Navigation Log

Ident Type
Flight plan parsing failed, navigation log unavailable